createdAt,value
2019-05-18T00:00:05.595Z,1003.70
2019-05-18T00:01:05.583Z,1003.71
2019-05-18T00:02:05.563Z,1003.70
2019-05-18T00:03:05.550Z,1003.65
2019-05-18T00:04:05.531Z,1003.63
2019-05-18T00:05:05.515Z,1003.61
2019-05-18T00:06:05.515Z,1003.60
2019-05-18T00:07:05.500Z,1003.65
2019-05-18T00:08:05.491Z,1003.62
2019-05-18T00:09:05.473Z,1003.61
2019-05-18T00:10:05.462Z,1003.61
2019-05-18T00:11:05.477Z,1003.58
2019-05-18T00:12:05.447Z,1003.58
2019-05-18T00:13:05.435Z,1003.58
2019-05-18T00:14:05.419Z,1003.57
2019-05-18T00:15:05.407Z,1003.54
2019-05-18T00:16:05.413Z,1003.55
2019-05-18T00:17:07.972Z,1003.56
2019-05-18T00:18:06.378Z,1003.57
2019-05-18T00:19:05.370Z,1003.61
2019-05-18T00:20:05.363Z,1003.59
2019-05-18T00:21:05.347Z,1003.63
2019-05-18T00:22:05.337Z,1003.59
2019-05-18T00:23:05.339Z,1003.59
2019-05-18T00:24:05.309Z,1003.61
2019-05-18T00:25:05.300Z,1003.62
2019-05-18T00:26:05.288Z,1003.62
2019-05-18T00:27:05.279Z,1003.63
2019-05-18T00:28:05.318Z,1003.64
2019-05-18T00:29:05.262Z,1003.66
2019-05-18T00:30:05.246Z,1003.66
2019-05-18T00:31:05.251Z,1003.68
2019-05-18T00:32:05.247Z,1003.65
2019-05-18T00:33:05.218Z,1003.64
2019-05-18T00:34:05.217Z,1003.64
2019-05-18T00:35:05.189Z,1003.61
2019-05-18T00:36:05.179Z,1003.63
2019-05-18T00:37:05.171Z,1003.65
2019-05-18T00:38:05.165Z,1003.63
2019-05-18T00:39:05.186Z,1003.63
2019-05-18T00:40:05.136Z,1003.60
2019-05-18T00:41:05.126Z,1003.59
2019-05-18T00:42:05.119Z,1003.57
2019-05-18T00:43:05.104Z,1003.55
2019-05-18T00:44:05.098Z,1003.53
2019-05-18T00:45:05.094Z,1003.54
2019-05-18T00:46:05.072Z,1003.58
2019-05-18T00:47:05.077Z,1003.64
2019-05-18T00:48:05.058Z,1003.66
2019-05-18T00:49:05.038Z,1003.67
2019-05-18T00:50:05.041Z,1003.69
2019-05-18T00:51:05.017Z,1003.68
2019-05-18T00:52:05.012Z,1003.62
2019-05-18T00:53:04.995Z,1003.64
2019-05-18T00:54:04.995Z,1003.67
2019-05-18T00:55:05.004Z,1003.62
2019-05-18T00:56:05.011Z,1003.64
2019-05-18T00:57:04.961Z,1003.65
2019-05-18T00:58:04.946Z,1003.63
2019-05-18T00:59:04.934Z,1003.61
2019-05-18T01:00:04.934Z,1003.58
2019-05-18T01:01:04.914Z,1003.60
2019-05-18T01:02:04.923Z,1003.55
2019-05-18T01:03:04.883Z,1003.50
2019-05-18T01:04:04.874Z,1003.54
2019-05-18T01:05:04.868Z,1003.55
2019-05-18T01:06:04.859Z,1003.58
2019-05-18T01:07:04.846Z,1003.57
2019-05-18T01:08:04.839Z,1003.58
2019-05-18T01:09:04.825Z,1003.56
2019-05-18T01:10:04.815Z,1003.60
2019-05-18T01:11:04.805Z,1003.57
2019-05-18T01:12:04.796Z,1003.59
2019-05-18T01:13:04.783Z,1003.57
2019-05-18T01:14:04.771Z,1003.56
2019-05-18T01:15:04.755Z,1003.56
2019-05-18T01:16:04.759Z,1003.56
2019-05-18T01:17:04.731Z,1003.55
2019-05-18T01:18:04.736Z,1003.58
2019-05-18T01:19:04.708Z,1003.54
2019-05-18T01:20:04.705Z,1003.54
2019-05-18T01:21:04.691Z,1003.57
2019-05-18T01:22:04.680Z,1003.48
2019-05-18T01:23:04.679Z,1003.53
2019-05-18T01:24:04.672Z,1003.53
2019-05-18T01:25:04.648Z,1003.51
2019-05-18T01:26:04.639Z,1003.51
2019-05-18T01:27:04.622Z,1003.52
2019-05-18T01:28:04.615Z,1003.52
2019-05-18T01:29:04.624Z,1003.51
2019-05-18T01:30:04.594Z,1003.46
2019-05-18T01:31:04.578Z,1003.53
2019-05-18T01:32:04.567Z,1003.50
2019-05-18T01:33:04.560Z,1003.48
2019-05-18T01:34:04.558Z,1003.51
2019-05-18T01:35:04.545Z,1003.56
2019-05-18T01:36:04.523Z,1003.54
2019-05-18T01:37:04.517Z,1003.59
2019-05-18T01:38:04.513Z,1003.61
2019-05-18T01:39:04.511Z,1003.59
2019-05-18T01:40:04.495Z,1003.58
2019-05-18T01:41:04.468Z,1003.57
2019-05-18T01:42:04.463Z,1003.58
2019-05-18T01:43:04.450Z,1003.56
2019-05-18T01:44:04.457Z,1003.59
2019-05-18T01:45:16.248Z,1003.62
2019-05-18T01:46:05.410Z,1003.63
2019-05-18T01:47:04.405Z,1003.67
2019-05-18T01:48:13.192Z,1003.64
2019-05-18T01:49:05.406Z,1003.63
2019-05-18T01:50:04.373Z,1003.64
2019-05-18T01:51:04.373Z,1003.63
2019-05-18T01:52:04.354Z,1003.63
2019-05-18T01:53:04.341Z,1003.64
2019-05-18T01:54:04.326Z,1003.61
2019-05-18T01:55:04.348Z,1003.62
2019-05-18T01:56:04.303Z,1003.63
2019-05-18T01:57:04.297Z,1003.57
2019-05-18T01:58:04.289Z,1003.58
2019-05-18T01:59:04.275Z,1003.59
2019-05-18T02:00:04.308Z,1003.61
2019-05-18T02:01:04.271Z,1003.61
2019-05-18T02:02:04.243Z,1003.64
2019-05-18T02:03:04.225Z,1003.64
2019-05-18T02:04:04.215Z,1003.63
2019-05-18T02:05:04.215Z,1003.60
2019-05-18T02:06:04.194Z,1003.54
2019-05-18T02:07:04.249Z,1003.58
2019-05-18T02:08:04.175Z,1003.62
2019-05-18T02:09:04.162Z,1003.58
2019-05-18T02:10:04.155Z,1003.62
2019-05-18T02:11:04.142Z,1003.61
2019-05-18T02:12:04.145Z,1003.64
2019-05-18T02:13:04.130Z,1003.66
2019-05-18T02:14:04.104Z,1003.62
2019-05-18T02:15:04.112Z,1003.70
2019-05-18T02:16:04.086Z,1003.62
2019-05-18T02:17:04.080Z,1003.61
2019-05-18T02:18:04.069Z,1003.57
2019-05-18T02:19:04.057Z,1003.57
2019-05-18T02:20:04.047Z,1003.61
2019-05-18T02:21:04.033Z,1003.62
2019-05-18T02:22:04.018Z,1003.65
2019-05-18T02:23:04.032Z,1003.63
2019-05-18T02:24:04.006Z,1003.67
2019-05-18T02:25:03.983Z,1003.65
2019-05-18T02:26:03.972Z,1003.67
2019-05-18T02:27:03.967Z,1003.63
2019-05-18T02:28:03.951Z,1003.66
2019-05-18T02:29:03.956Z,1003.62
2019-05-18T02:30:03.936Z,1003.60
2019-05-18T02:31:03.925Z,1003.63
2019-05-18T02:32:03.933Z,1003.64
2019-05-18T02:33:03.897Z,1003.66
2019-05-18T02:34:03.896Z,1003.71
2019-05-18T02:35:03.883Z,1003.72
2019-05-18T02:36:03.872Z,1003.70
2019-05-18T02:37:03.861Z,1003.66
2019-05-18T02:38:03.848Z,1003.69
2019-05-18T02:39:03.870Z,1003.65
2019-05-18T02:40:03.820Z,1003.63
2019-05-18T02:41:03.813Z,1003.61
2019-05-18T02:42:03.803Z,1003.62
2019-05-18T02:43:03.798Z,1003.60
2019-05-18T02:44:03.781Z,1003.60
2019-05-18T02:45:03.792Z,1003.56
2019-05-18T02:46:03.754Z,1003.55
2019-05-18T02:47:03.749Z,1003.53
2019-05-18T02:48:03.737Z,1003.53
2019-05-18T02:49:03.729Z,1003.53
2019-05-18T02:50:03.726Z,1003.49
2019-05-18T02:51:03.719Z,1003.49
2019-05-18T02:52:03.696Z,1003.48
2019-05-18T02:53:03.688Z,1003.49
2019-05-18T02:54:03.681Z,1003.46
2019-05-18T02:55:03.682Z,1003.47
2019-05-18T02:56:03.648Z,1003.47
2019-05-18T02:57:03.637Z,1003.48
2019-05-18T02:58:03.626Z,1003.51
2019-05-18T02:59:03.613Z,1003.45
2019-05-18T03:00:03.609Z,1003.48
2019-05-18T03:01:03.610Z,1003.54
2019-05-18T03:02:03.586Z,1003.50
2019-05-18T03:03:03.574Z,1003.51
2019-05-18T03:04:03.571Z,1003.50
2019-05-18T03:05:03.554Z,1003.55
2019-05-18T03:06:03.577Z,1003.49
2019-05-18T03:07:03.532Z,1003.49
2019-05-18T03:08:03.524Z,1003.53
2019-05-18T03:09:03.506Z,1003.47
2019-05-18T03:10:03.505Z,1003.50
2019-05-18T03:11:03.494Z,1003.51
2019-05-18T03:12:03.485Z,1003.50
2019-05-18T03:13:03.461Z,1003.51
2019-05-18T03:14:03.456Z,1003.54
2019-05-18T03:15:03.444Z,1003.53
2019-05-18T03:16:03.440Z,1003.55
2019-05-18T03:17:03.427Z,1003.56
2019-05-18T03:18:03.457Z,1003.61
2019-05-18T03:19:08.215Z,1003.58
2019-05-18T03:20:04.385Z,1003.55
2019-05-18T03:21:03.378Z,1003.52
2019-05-18T03:22:03.368Z,1003.54
2019-05-18T03:23:03.351Z,1003.57
2019-05-18T03:24:03.385Z,1003.54
2019-05-18T03:25:03.348Z,1003.59
2019-05-18T03:26:03.338Z,1003.61
2019-05-18T03:27:03.306Z,1003.59
2019-05-18T03:28:03.295Z,1003.61
2019-05-18T03:29:03.306Z,1003.57
2019-05-18T03:30:03.281Z,1003.59
2019-05-18T03:31:03.298Z,1003.54
2019-05-18T03:32:03.271Z,1003.53
2019-05-18T03:33:03.300Z,1003.51
2019-05-18T03:34:03.237Z,1003.53
2019-05-18T03:35:03.222Z,1003.55
2019-05-18T03:36:03.213Z,1003.53
2019-05-18T03:37:03.198Z,1003.54
2019-05-18T03:38:03.195Z,1003.55
2019-05-18T03:39:03.181Z,1003.52
2019-05-18T03:40:03.211Z,1003.51
2019-05-18T03:41:03.161Z,1003.54
2019-05-18T03:42:03.148Z,1003.53
2019-05-18T03:43:03.146Z,1003.56
2019-05-18T03:44:03.139Z,1003.58
2019-05-18T03:45:03.108Z,1003.60
2019-05-18T03:46:03.108Z,1003.57
2019-05-18T03:47:03.091Z,1003.59
2019-05-18T03:48:03.084Z,1003.59
2019-05-18T03:49:03.079Z,1003.61
2019-05-18T03:50:03.163Z,1003.59
2019-05-18T03:51:03.071Z,1003.62
2019-05-18T03:52:03.052Z,1003.57
2019-05-18T03:53:03.027Z,1003.60
2019-05-18T03:54:03.010Z,1003.58
2019-05-18T03:55:03.004Z,1003.56
2019-05-18T03:56:03.012Z,1003.54
2019-05-18T03:57:02.979Z,1003.55
2019-05-18T03:58:02.969Z,1003.55
2019-05-18T03:59:02.957Z,1003.55
2019-05-18T04:00:02.961Z,1003.53
2019-05-18T04:01:02.944Z,1003.56
2019-05-18T04:02:02.927Z,1003.47
2019-05-18T04:03:02.912Z,1003.47
2019-05-18T04:04:02.909Z,1003.43
2019-05-18T04:05:02.906Z,1003.46
2019-05-18T04:06:02.931Z,1003.46
2019-05-18T04:07:02.875Z,1003.46
2019-05-18T04:08:02.865Z,1003.48
2019-05-18T04:09:02.852Z,1003.46
2019-05-18T04:10:02.834Z,1003.47
2019-05-18T04:11:02.841Z,1003.46
2019-05-18T04:12:02.819Z,1003.44
2019-05-18T04:13:02.821Z,1003.42
2019-05-18T04:14:02.792Z,1003.43
2019-05-18T04:15:02.791Z,1003.43
2019-05-18T04:16:02.823Z,1003.44
2019-05-18T04:17:02.769Z,1003.40
2019-05-18T04:18:02.756Z,1003.39
2019-05-18T04:19:02.737Z,1003.37
2019-05-18T04:20:02.737Z,1003.43
2019-05-18T04:21:02.720Z,1003.41
2019-05-18T04:22:02.730Z,1003.41
2019-05-18T04:23:02.697Z,1003.39
2019-05-18T04:24:02.692Z,1003.43
2019-05-18T04:25:02.676Z,1003.38
2019-05-18T04:26:02.661Z,1003.41
2019-05-18T04:27:02.671Z,1003.41
2019-05-18T04:28:02.652Z,1003.37
2019-05-18T04:29:02.631Z,1003.38
2019-05-18T04:30:02.622Z,1003.38
2019-05-18T04:31:02.617Z,1003.36
2019-05-18T04:32:02.595Z,1003.33
2019-05-18T04:33:02.609Z,1003.37
2019-05-18T04:34:02.577Z,1003.38
2019-05-18T04:35:02.561Z,1003.37
2019-05-18T04:36:02.558Z,1003.37
2019-05-18T04:37:02.546Z,1003.37
2019-05-18T04:38:02.533Z,1003.37
2019-05-18T04:39:02.525Z,1003.40
2019-05-18T04:40:02.512Z,1003.40
2019-05-18T04:41:02.524Z,1003.39
2019-05-18T04:42:02.490Z,1003.42
2019-05-18T04:43:02.477Z,1003.39
2019-05-18T04:44:02.466Z,1003.36
2019-05-18T04:45:02.460Z,1003.40
2019-05-18T04:46:02.447Z,1003.40
2019-05-18T04:47:02.440Z,1003.39
2019-05-18T04:48:02.419Z,1003.43
2019-05-18T04:49:02.409Z,1003.44
2019-05-18T04:50:05.667Z,1003.43
2019-05-18T04:51:02.400Z,1003.43
2019-05-18T04:52:02.398Z,1003.42
2019-05-18T04:53:02.378Z,1003.44
2019-05-18T04:54:02.354Z,1003.44
2019-05-18T04:55:02.359Z,1003.42
2019-05-18T04:56:02.345Z,1003.47
2019-05-18T04:57:02.333Z,1003.44
2019-05-18T04:58:02.332Z,1003.43
2019-05-18T04:59:02.308Z,1003.42
2019-05-18T05:00:02.287Z,1003.43
2019-05-18T05:01:02.286Z,1003.44
2019-05-18T05:02:02.297Z,1003.43
2019-05-18T05:03:02.266Z,1003.38
2019-05-18T05:04:02.281Z,1003.43
2019-05-18T05:05:02.239Z,1003.37
2019-05-18T05:06:02.229Z,1003.34
2019-05-18T05:07:02.287Z,1003.40
2019-05-18T05:08:02.257Z,1003.37
2019-05-18T05:09:02.192Z,1003.36
2019-05-18T05:10:04.720Z,1003.30
2019-05-18T05:11:02.172Z,1003.35
2019-05-18T05:12:02.162Z,1003.39
2019-05-18T05:13:02.205Z,1003.40
2019-05-18T05:14:02.195Z,1003.41
2019-05-18T05:15:02.134Z,1003.38
2019-05-18T05:16:02.113Z,1003.43
2019-05-18T05:17:02.106Z,1003.37
2019-05-18T05:18:02.131Z,1003.38
2019-05-18T05:19:02.092Z,1003.34
2019-05-18T05:20:02.068Z,1003.35
2019-05-18T05:21:02.063Z,1003.34
2019-05-18T05:22:02.051Z,1003.34
2019-05-18T05:23:02.131Z,1003.34
2019-05-18T05:24:02.041Z,1003.32
2019-05-18T05:25:02.441Z,1003.33
2019-05-18T05:26:02.015Z,1003.27
2019-05-18T05:27:01.997Z,1003.28
2019-05-18T05:28:01.981Z,1003.32
2019-05-18T05:29:01.979Z,1003.31
2019-05-18T05:30:01.965Z,1003.30
2019-05-18T05:31:01.950Z,1003.32
2019-05-18T05:32:01.955Z,1003.30
2019-05-18T05:33:01.933Z,1003.31
2019-05-18T05:34:01.925Z,1003.33
2019-05-18T05:35:01.962Z,1003.38
2019-05-18T05:36:01.903Z,1003.33
2019-05-18T05:37:01.888Z,1003.37
2019-05-18T05:38:01.900Z,1003.42
2019-05-18T05:39:01.863Z,1003.42
2019-05-18T05:40:01.852Z,1003.38
2019-05-18T05:41:01.858Z,1003.41
2019-05-18T05:42:01.832Z,1003.41
2019-05-18T05:43:01.824Z,1003.47
2019-05-18T05:44:01.812Z,1003.49
2019-05-18T05:45:01.812Z,1003.47
2019-05-18T05:46:01.809Z,1003.44
2019-05-18T05:47:01.800Z,1003.48
2019-05-18T05:48:01.774Z,1003.46
2019-05-18T05:49:01.780Z,1003.42
2019-05-18T05:50:01.759Z,1003.43
2019-05-18T05:51:01.740Z,1003.43
2019-05-18T05:52:01.723Z,1003.42
2019-05-18T05:53:01.718Z,1003.49
2019-05-18T05:54:01.699Z,1003.45
2019-05-18T05:55:01.690Z,1003.46
2019-05-18T05:56:01.710Z,1003.44
2019-05-18T05:57:01.666Z,1003.48
2019-05-18T05:58:01.654Z,1003.45
2019-05-18T05:59:01.649Z,1003.50
2019-05-18T06:00:01.638Z,1003.50
2019-05-18T06:01:01.627Z,1003.49
2019-05-18T06:02:01.758Z,1003.51
2019-05-18T06:03:01.599Z,1003.52
2019-05-18T06:04:01.597Z,1003.45
2019-05-18T06:05:01.579Z,1003.42
2019-05-18T06:06:01.567Z,1003.51
2019-05-18T06:07:01.555Z,1003.52
2019-05-18T06:08:01.561Z,1003.52
2019-05-18T06:09:01.538Z,1003.51
2019-05-18T06:10:01.574Z,1003.53
2019-05-18T06:11:01.531Z,1003.51
2019-05-18T06:12:01.512Z,1003.55
2019-05-18T06:13:01.498Z,1003.54
2019-05-18T06:14:01.482Z,1003.47
2019-05-18T06:15:01.472Z,1003.47
2019-05-18T06:16:01.457Z,1003.51
2019-05-18T06:17:01.447Z,1003.53
2019-05-18T06:18:01.457Z,1003.51
2019-05-18T06:19:01.429Z,1003.53
2019-05-18T06:20:01.428Z,1003.54
2019-05-18T06:21:01.412Z,1003.55
2019-05-18T06:22:01.394Z,1003.53
2019-05-18T06:23:01.393Z,1003.52
2019-05-18T06:24:01.669Z,1003.47
2019-05-18T06:25:01.405Z,1003.47
2019-05-18T06:26:01.370Z,1003.42
2019-05-18T06:27:01.334Z,1003.41
2019-05-18T06:28:01.348Z,1003.46
2019-05-18T06:29:01.323Z,1003.45
2019-05-18T06:30:01.304Z,1003.42
2019-05-18T06:31:01.296Z,1003.46
2019-05-18T06:32:01.287Z,1003.42
2019-05-18T06:33:01.289Z,1003.43
2019-05-18T06:34:01.275Z,1003.43
2019-05-18T06:35:01.266Z,1003.43
2019-05-18T06:36:01.242Z,1003.45
2019-05-18T06:37:01.230Z,1003.41
2019-05-18T06:38:01.214Z,1003.38
2019-05-18T06:39:01.224Z,1003.42
2019-05-18T06:40:01.198Z,1003.45
2019-05-18T06:41:01.185Z,1003.45
2019-05-18T06:42:01.181Z,1003.48
2019-05-18T06:43:01.171Z,1003.39
2019-05-18T06:44:01.171Z,1003.42
2019-05-18T06:45:01.149Z,1003.48
2019-05-18T06:46:01.142Z,1003.44
2019-05-18T06:47:01.123Z,1003.42
2019-05-18T06:48:01.106Z,1003.43
2019-05-18T06:49:01.099Z,1003.44
2019-05-18T06:50:01.125Z,1003.39
2019-05-18T06:51:07.340Z,1003.44
2019-05-18T06:52:02.066Z,1003.45
2019-05-18T06:53:01.054Z,1003.46
2019-05-18T06:54:01.047Z,1003.47
2019-05-18T06:55:01.037Z,1003.44
2019-05-18T06:56:01.054Z,1003.41
2019-05-18T06:57:01.015Z,1003.40
2019-05-18T06:58:01.006Z,1003.45
2019-05-18T06:59:00.997Z,1003.47
2019-05-18T07:00:00.977Z,1003.44
2019-05-18T07:01:00.971Z,1003.47
2019-05-18T07:02:00.975Z,1003.49
2019-05-18T07:03:00.957Z,1003.44
2019-05-18T07:04:00.931Z,1003.45
2019-05-18T07:05:00.927Z,1003.50
2019-05-18T07:06:00.920Z,1003.51
2019-05-18T07:07:00.905Z,1003.46
2019-05-18T07:08:00.893Z,1003.42
2019-05-18T07:09:00.887Z,1003.47
2019-05-18T07:10:00.867Z,1003.50
2019-05-18T07:11:00.870Z,1003.50
2019-05-18T07:12:00.848Z,1003.53
2019-05-18T07:13:00.840Z,1003.49
2019-05-18T07:14:00.824Z,1003.49
2019-05-18T07:15:00.818Z,1003.48
2019-05-18T07:16:00.811Z,1003.48
2019-05-18T07:17:00.804Z,1003.51
2019-05-18T07:18:00.787Z,1003.45
2019-05-18T07:19:00.786Z,1003.45
2019-05-18T07:20:00.758Z,1003.43
2019-05-18T07:21:00.756Z,1003.42
2019-05-18T07:22:00.741Z,1003.39
2019-05-18T07:23:00.725Z,1003.42
2019-05-18T07:24:00.729Z,1003.45
2019-05-18T07:25:00.716Z,1003.38
2019-05-18T07:26:00.694Z,1003.42
2019-05-18T07:27:00.681Z,1003.40
2019-05-18T07:28:00.672Z,1003.42
2019-05-18T07:29:00.670Z,1003.40
2019-05-18T07:30:00.656Z,1003.36
2019-05-18T07:31:00.649Z,1003.37
2019-05-18T07:32:00.649Z,1003.39
2019-05-18T07:33:00.622Z,1003.38
2019-05-18T07:34:00.613Z,1003.41
2019-05-18T07:35:00.598Z,1003.35
2019-05-18T07:36:00.598Z,1003.35
2019-05-18T07:37:00.576Z,1003.37
2019-05-18T07:38:00.573Z,1003.32
2019-05-18T07:39:00.582Z,1003.36
2019-05-18T07:40:00.548Z,1003.32
2019-05-18T07:41:00.538Z,1003.30
2019-05-18T07:42:00.522Z,1003.29
2019-05-18T07:43:00.515Z,1003.28
2019-05-18T07:44:00.511Z,1003.27
2019-05-18T07:45:00.493Z,1003.26
2019-05-18T07:46:00.492Z,1003.26
2019-05-18T07:47:00.471Z,1003.24
2019-05-18T07:48:00.460Z,1003.23
2019-05-18T07:49:00.445Z,1003.22
2019-05-18T07:50:00.447Z,1003.23
2019-05-18T07:51:00.439Z,1003.22
2019-05-18T07:52:00.418Z,1003.22
2019-05-18T07:53:00.411Z,1003.27
2019-05-18T07:54:00.409Z,1003.23
2019-05-18T07:55:00.391Z,1003.21
2019-05-18T07:56:00.414Z,1003.18
2019-05-18T07:57:00.366Z,1003.16
2019-05-18T07:58:00.358Z,1003.12
2019-05-18T07:59:00.350Z,1003.11
2019-05-18T08:00:00.333Z,1003.05
2019-05-18T08:01:00.330Z,1003.08
2019-05-18T08:02:00.316Z,1003.09
2019-05-18T08:03:00.311Z,1003.13
2019-05-18T08:04:00.287Z,1003.10
2019-05-18T08:05:00.289Z,1003.03
2019-05-18T08:07:09.041Z,1003.07
2019-05-18T08:08:09.025Z,1003.02
2019-05-18T08:09:09.006Z,1003.05
2019-05-18T08:10:09.028Z,1003.02
2019-05-18T08:11:08.995Z,1003.03
2019-05-18T08:12:08.982Z,1003.02
2019-05-18T08:13:08.971Z,1003.04
2019-05-18T08:14:08.961Z,1003.04
2019-05-18T08:15:08.946Z,1003.08
2019-05-18T08:16:08.941Z,1003.06
2019-05-18T08:17:08.923Z,1003.07
2019-05-18T08:18:08.930Z,1003.09
2019-05-18T08:19:08.902Z,1003.04
2019-05-18T08:20:08.892Z,1003.06
2019-05-18T08:21:08.881Z,1003.09
2019-05-18T08:22:08.886Z,1003.12
2019-05-18T08:23:08.869Z,1003.10
2019-05-18T08:24:08.896Z,1003.09
2019-05-18T08:25:08.846Z,1003.09
2019-05-18T08:26:08.829Z,1002.97
2019-05-18T08:27:08.823Z,1003.02
2019-05-18T08:28:08.812Z,1003.02
2019-05-18T08:29:08.804Z,1003.01
2019-05-18T08:30:08.809Z,1002.96
2019-05-18T08:31:08.779Z,1002.98
2019-05-18T08:32:08.775Z,1002.94
2019-05-18T08:33:08.835Z,1002.89
2019-05-18T08:34:08.744Z,1002.91
2019-05-18T08:35:08.749Z,1002.89
2019-05-18T08:36:08.721Z,1002.90
2019-05-18T08:37:08.711Z,1002.85
2019-05-18T08:38:08.701Z,1002.83
2019-05-18T08:39:08.704Z,1002.77
2019-05-18T08:40:08.683Z,1002.76
2019-05-18T08:41:08.676Z,1002.76
2019-05-18T08:42:08.664Z,1002.71
2019-05-18T08:43:08.655Z,1002.74
2019-05-18T08:44:08.650Z,1002.75
2019-05-18T08:45:08.627Z,1002.64
2019-05-18T08:46:08.617Z,1002.65
2019-05-18T08:47:08.614Z,1002.73
2019-05-18T08:48:08.601Z,1002.72
2019-05-18T08:49:08.599Z,1002.63
2019-05-18T08:50:08.617Z,1002.68
2019-05-18T08:51:08.592Z,1002.61
2019-05-18T08:52:08.913Z,1002.67
2019-05-18T08:53:08.548Z,1002.65
2019-05-18T08:54:08.577Z,1002.61
2019-05-18T08:55:08.533Z,1002.61
2019-05-18T08:56:08.525Z,1002.61
2019-05-18T08:57:08.509Z,1002.64
2019-05-18T08:58:08.499Z,1002.69
2019-05-18T08:59:08.501Z,1002.66
2019-05-18T09:00:08.491Z,1002.65
2019-05-18T09:01:08.463Z,1002.69
2019-05-18T09:02:08.452Z,1002.59
2019-05-18T09:03:08.448Z,1002.63
2019-05-18T09:04:08.433Z,1002.60
2019-05-18T09:05:08.436Z,1002.61
2019-05-18T09:06:08.417Z,1002.60
2019-05-18T09:07:08.406Z,1002.58
2019-05-18T09:08:08.392Z,1002.64
2019-05-18T09:09:08.394Z,1002.59
2019-05-18T09:10:08.411Z,1002.59
2019-05-18T09:11:08.368Z,1002.57
2019-05-18T09:12:08.352Z,1002.61
2019-05-18T09:13:08.340Z,1002.51
2019-05-18T09:14:08.341Z,1002.58
2019-05-18T09:15:08.336Z,1002.62
2019-05-18T09:16:08.328Z,1002.53
2019-05-18T09:17:08.299Z,1002.57
2019-05-18T09:18:08.288Z,1002.56
2019-05-18T09:19:08.277Z,1002.54
2019-05-18T09:20:08.277Z,1002.55
2019-05-18T09:21:08.264Z,1002.51
2019-05-18T09:22:22.275Z,1002.54
2019-05-18T09:23:09.238Z,1002.47
2019-05-18T09:24:08.232Z,1002.52
2019-05-18T09:25:08.213Z,1002.51
2019-05-18T09:26:08.203Z,1002.51
2019-05-18T09:27:08.216Z,1002.51
2019-05-18T09:28:08.196Z,1002.53
2019-05-18T09:29:08.183Z,1002.46
2019-05-18T09:30:08.642Z,1002.53
2019-05-18T09:31:08.154Z,1002.51
2019-05-18T09:32:08.142Z,1002.49
2019-05-18T09:33:08.158Z,1002.53
2019-05-18T09:34:08.129Z,1002.55
2019-05-18T09:35:08.120Z,1002.59
2019-05-18T09:36:08.108Z,1002.57
2019-05-18T09:37:08.105Z,1002.60
2019-05-18T09:38:08.089Z,1002.59
2019-05-18T09:39:08.078Z,1002.62
2019-05-18T09:40:08.061Z,1002.60
2019-05-18T09:41:08.060Z,1002.57
2019-05-18T09:42:08.085Z,1002.51
2019-05-18T09:43:08.029Z,1002.54
2019-05-18T09:44:08.072Z,1002.54
2019-05-18T09:45:08.030Z,1002.66
2019-05-18T09:46:08.000Z,1002.49
2019-05-18T09:47:07.988Z,1002.45
2019-05-18T09:48:07.998Z,1002.51
2019-05-18T09:49:07.973Z,1002.49
2019-05-18T09:50:07.972Z,1002.57
2019-05-18T09:51:07.967Z,1002.45
2019-05-18T09:52:07.938Z,1002.42
2019-05-18T09:53:07.931Z,1002.46
2019-05-18T09:54:07.946Z,1002.51
2019-05-18T09:55:07.913Z,1002.21
2019-05-18T09:56:07.918Z,1002.45
2019-05-18T09:57:07.886Z,1002.37
2019-05-18T09:58:07.877Z,1002.42
2019-05-18T09:59:07.879Z,1002.44
2019-05-18T10:00:07.865Z,1002.49
2019-05-18T10:01:07.854Z,1002.44
2019-05-18T10:02:07.843Z,1002.45
2019-05-18T10:03:07.825Z,1002.38
2019-05-18T10:04:07.822Z,1002.39
2019-05-18T10:05:07.850Z,1002.42
2019-05-18T10:06:07.847Z,1002.41
2019-05-18T10:07:07.790Z,1002.39
2019-05-18T10:08:07.785Z,1002.40
2019-05-18T10:09:07.777Z,1002.36
2019-05-18T10:10:07.759Z,1002.36
2019-05-18T10:11:07.792Z,1002.36
2019-05-18T10:12:07.739Z,1002.41
2019-05-18T10:13:07.732Z,1002.43
2019-05-18T10:14:07.716Z,1002.40
2019-05-18T10:15:07.710Z,1002.39
2019-05-18T10:16:07.700Z,1002.16
2019-05-18T10:17:07.718Z,1002.39
2019-05-18T10:18:07.674Z,1002.46
2019-05-18T10:19:07.671Z,1002.36
2019-05-18T10:20:07.670Z,1002.43
2019-05-18T10:21:07.656Z,1002.38
2019-05-18T10:22:07.639Z,1002.44
2019-05-18T10:23:12.934Z,1002.41
2019-05-18T10:24:08.619Z,1002.41
2019-05-18T10:25:07.609Z,1002.37
2019-05-18T10:26:07.605Z,1002.42
2019-05-18T10:27:07.590Z,1002.42
2019-05-18T10:28:07.585Z,1002.27
2019-05-18T10:29:07.580Z,1002.36
2019-05-18T10:30:07.563Z,1002.29
2019-05-18T10:31:07.551Z,1002.33
2019-05-18T10:32:07.566Z,1002.29
2019-05-18T10:33:07.531Z,1002.31
2019-05-18T10:34:07.558Z,1002.27
2019-05-18T10:35:07.514Z,1002.28
2019-05-18T10:36:07.500Z,1002.30
2019-05-18T10:37:07.488Z,1002.26
2019-05-18T10:38:07.480Z,1002.24
2019-05-18T10:39:07.474Z,1002.20
2019-05-18T10:40:07.467Z,1002.17
2019-05-18T10:41:07.458Z,1002.19
2019-05-18T10:42:07.449Z,1002.16
2019-05-18T10:43:07.432Z,1002.19
2019-05-18T10:44:07.426Z,1002.13
2019-05-18T10:45:07.407Z,1002.11
2019-05-18T10:46:07.396Z,1002.17
2019-05-18T10:47:07.391Z,1002.12
2019-05-18T10:48:07.420Z,1002.08
2019-05-18T10:49:07.406Z,1002.07
2019-05-18T10:50:07.393Z,1002.08
2019-05-18T10:51:07.378Z,1002.04
2019-05-18T10:52:07.342Z,1002.07
2019-05-18T10:53:07.338Z,1002.13
2019-05-18T10:54:07.361Z,1002.04
2019-05-18T10:55:07.321Z,1002.04
2019-05-18T10:56:07.297Z,1002.02
2019-05-18T10:57:07.288Z,1002.04
2019-05-18T10:58:07.284Z,1002.02
2019-05-18T10:59:07.269Z,1002.05
2019-05-18T11:00:07.298Z,1002.03
2019-05-18T11:01:07.249Z,1002.03
2019-05-18T11:02:07.244Z,1001.97
2019-05-18T11:03:07.234Z,1001.94
2019-05-18T11:04:07.225Z,1001.99
2019-05-18T11:05:07.209Z,1001.98
2019-05-18T11:06:07.215Z,1001.93
2019-05-18T11:07:07.195Z,1001.99
2019-05-18T11:08:07.186Z,1001.94
2019-05-18T11:09:07.178Z,1001.98
2019-05-18T11:10:07.162Z,1001.95
2019-05-18T11:11:07.255Z,1001.93
2019-05-18T11:12:07.141Z,1001.92
2019-05-18T11:13:07.140Z,1001.94
2019-05-18T11:14:07.131Z,1001.94
2019-05-18T11:15:07.123Z,1001.93
2019-05-18T11:16:07.139Z,1001.89
2019-05-18T11:17:07.103Z,1001.89
2019-05-18T11:18:07.094Z,1001.92
2019-05-18T11:19:07.071Z,1001.87
2019-05-18T11:20:07.060Z,1001.90
2019-05-18T11:21:07.056Z,1001.74
2019-05-18T11:22:07.057Z,1001.98
2019-05-18T11:23:07.038Z,1001.97
2019-05-18T11:24:07.031Z,1001.92
2019-05-18T11:25:07.011Z,1001.87
2019-05-18T11:26:07.006Z,1001.51
2019-05-18T11:27:07.005Z,1002.01
2019-05-18T11:28:06.986Z,1001.91
2019-05-18T11:29:06.978Z,1001.86
2019-05-18T11:30:07.034Z,1001.92
2019-05-18T11:31:06.952Z,1001.94
2019-05-18T11:32:06.966Z,1001.92
2019-05-18T11:33:06.931Z,1001.87
2019-05-18T11:34:06.926Z,1001.87
2019-05-18T11:35:06.919Z,1001.84
2019-05-18T11:36:06.910Z,1001.90
2019-05-18T11:37:06.892Z,1001.86
2019-05-18T11:38:06.894Z,1001.87
2019-05-18T11:39:06.881Z,1001.88
2019-05-18T11:40:06.877Z,1001.31
2019-05-18T11:41:06.854Z,1001.43
2019-05-18T11:42:06.852Z,1001.75
2019-05-18T11:43:06.858Z,1001.78
2019-05-18T11:44:06.823Z,1001.81
2019-05-18T11:45:06.819Z,1001.85
2019-05-18T11:46:06.803Z,1001.79
2019-05-18T11:47:06.798Z,1001.82
2019-05-18T11:48:06.805Z,1001.85
2019-05-18T11:49:06.773Z,1001.78
2019-05-18T11:50:06.783Z,1001.80
2019-05-18T11:51:06.759Z,1001.82
2019-05-18T11:52:06.752Z,1001.73
2019-05-18T11:53:06.737Z,1001.83
2019-05-18T11:54:06.746Z,1001.83
2019-05-18T11:55:06.716Z,1001.50
2019-05-18T11:56:06.707Z,1001.36
2019-05-18T11:57:06.695Z,1001.36
2019-05-18T11:58:06.694Z,1001.35
2019-05-18T11:59:06.681Z,1001.34
2019-05-18T12:00:06.671Z,1001.27
2019-05-18T12:01:06.659Z,1001.30
2019-05-18T12:02:06.651Z,1001.44
2019-05-18T12:03:06.635Z,1001.28
2019-05-18T12:04:06.647Z,1001.33
2019-05-18T12:05:06.629Z,1001.69
2019-05-18T12:06:06.604Z,1001.56